Time;durP1;ratioP1;P1;durP2;ratioP2;P2;SDS_P1;SDS_P2;PMS_P1;PMS_P2;Temp;Humidity;BMP_temperature;BMP_pressure;BME280_temperature;BME280_humidity;BME280_pressure;Samples;Min_cycle;Max_cycle;Signal;HPM_P1;HPM_P2
2023/03/17 00:00:11;;;;;;;0.90;0.40;;;16.70;60.30;;;;;;5109666;27;45379;-75
2023/03/17 00:02:40;;;;;;;0.73;0.50;;;16.70;60.30;;;;;;5109426;27;45072;-75
2023/03/17 00:05:16;;;;;;;0.68;0.30;;;16.70;59.80;;;;;;5109048;27;45155;-75
2023/03/17 00:07:43;;;;;;;0.55;0.40;;;16.70;60.30;;;;;;5109220;27;45244;-75
2023/03/17 00:10:14;;;;;;;0.47;0.47;;;16.70;60.10;;;;;;5109438;27;45183;-75
2023/03/17 00:12:41;;;;;;;0.47;0.30;;;16.70;60.10;;;;;;5108935;27;46809;-74
2023/03/17 00:15:11;;;;;;;0.50;0.40;;;16.70;59.70;;;;;;5109121;27;45361;-75
2023/03/17 00:17:38;;;;;;;1.60;0.50;;;16.70;59.60;;;;;;5115130;27;45088;-75
2023/03/17 00:20:06;;;;;;;0.32;0.30;;;16.70;59.80;;;;;;5129822;27;45485;-75
2023/03/17 00:22:33;;;;;;;0.80;0.40;;;16.60;60.00;;;;;;5129421;27;46620;-75
2023/03/17 00:25:00;;;;;;;0.98;0.43;;;16.60;60.00;;;;;;5128853;27;45294;-75
2023/03/17 00:27:28;;;;;;;0.55;0.43;;;16.60;60.40;;;;;;5128581;27;45234;-74
2023/03/17 00:29:55;;;;;;;0.60;0.40;;;16.60;60.00;;;;;;5129127;27;45328;-75
2023/03/17 00:32:23;;;;;;;0.75;0.35;;;16.60;60.00;;;;;;5128297;27;47584;-74
2023/03/17 00:34:50;;;;;;;0.43;0.30;;;16.60;60.30;;;;;;5128639;27;45204;-75
2023/03/17 00:37:17;;;;;;;0.77;0.40;;;16.60;60.00;;;;;;5128372;27;45160;-75
2023/03/17 00:39:43;;;;;;;0.50;0.40;;;16.60;60.20;;;;;;5128431;27;45432;-75
2023/03/17 00:42:11;;;;;;;2.33;0.60;;;16.60;60.10;;;;;;5130631;27;47034;-75
2023/03/17 00:44:38;;;;;;;0.98;0.40;;;16.60;59.80;;;;;;5131560;27;45207;-75
2023/03/17 00:47:05;;;;;;;0.68;0.40;;;16.60;60.20;;;;;;5129359;27;45373;-75
2023/03/17 00:49:33;;;;;;;0.45;0.45;;;16.60;60.10;;;;;;5129444;27;45162;-76
2023/03/17 00:52:00;;;;;;;0.85;0.40;;;16.60;60.20;;;;;;5128743;27;48306;-75
2023/03/17 00:54:27;;;;;;;1.25;0.50;;;16.60;60.20;;;;;;5129217;27;46249;-75
2023/03/17 00:56:54;;;;;;;1.15;0.43;;;16.60;60.00;;;;;;5129220;27;45367;-75
2023/03/17 00:59:26;;;;;;;1.30;0.60;;;16.60;60.10;;;;;;5129144;27;45149;-75
2023/03/17 01:01:54;;;;;;;1.27;0.50;;;16.60;60.00;;;;;;5128726;27;48182;-75
2023/03/17 01:04:21;;;;;;;0.45;0.32;;;16.60;60.00;;;;;;5128985;27;45380;-75
2023/03/17 01:06:50;;;;;;;0.43;0.43;;;16.60;59.30;;;;;;5129109;27;45091;-75
2023/03/17 01:09:19;;;;;;;0.35;0.35;;;16.60;59.60;;;;;;5128977;27;45154;-75
2023/03/17 01:11:47;;;;;;;0.90;0.35;;;16.60;59.40;;;;;;5128762;27;46343;-75
2023/03/17 01:14:14;;;;;;;0.60;0.50;;;16.60;59.20;;;;;;5128663;27;45703;-75
2023/03/17 01:16:41;;;;;;;1.70;0.40;;;16.60;59.20;;;;;;5121384;27;45262;-75
2023/03/17 01:19:10;;;;;;;0.95;0.55;;;16.60;58.80;;;;;;5108181;27;45483;-75
2023/03/17 01:21:37;;;;;;;0.20;0.20;;;16.60;59.00;;;;;;5108139;27;47591;-75
2023/03/17 01:24:07;;;;;;;0.50;0.50;;;16.60;58.80;;;;;;5108162;27;45129;-75
2023/03/17 01:26:34;;;;;;;0.63;0.40;;;16.60;58.80;;;;;;5107911;27;45391;-75
2023/03/17 01:29:00;;;;;;;0.47;0.30;;;16.60;58.70;;;;;;5107728;27;45413;-75
2023/03/17 01:31:27;;;;;;;0.55;0.40;;;16.60;60.00;;;;;;5107942;27;48278;-75
2023/03/17 01:33:54;;;;;;;0.43;0.40;;;16.60;58.50;;;;;;5107729;27;45650;-75
2023/03/17 01:36:21;;;;;;;1.13;0.60;;;16.60;58.80;;;;;;5111671;27;45287;-76
2023/03/17 01:38:49;;;;;;;0.68;0.43;;;16.60;58.50;;;;;;5108647;27;45354;-75
2023/03/17 01:41:17;;;;;;;0.57;0.30;;;16.60;58.60;;;;;;5107359;27;45403;-75
2023/03/17 01:43:44;;;;;;;0.22;0.20;;;16.60;58.70;;;;;;5107540;27;45328;-75
2023/03/17 01:46:23;;;;;;;0.28;0.28;;;16.60;58.20;;;;;;5107469;27;45156;-75
2023/03/17 01:49:03;;;;;;;0.38;0.30;;;16.60;58.30;;;;;;5107891;27;45233;-75
2023/03/17 01:51:33;;;;;;;1.25;0.50;;;16.60;58.40;;;;;;5107269;27;46279;-75
2023/03/17 01:54:01;;;;;;;0.55;0.45;;;16.60;59.60;;;;;;5106571;27;45182;-75
2023/03/17 01:56:29;;;;;;;0.43;0.40;;;16.60;58.40;;;;;;5107513;27;45295;-75
2023/03/17 01:58:59;;;;;;;1.00;0.40;;;16.60;57.90;;;;;;5107371;27;45566;-75
2023/03/17 02:01:33;;;;;;;0.55;0.50;;;16.60;58.70;;;;;;5107317;27;48701;-75
2023/03/17 02:04:01;;;;;;;0.82;0.30;;;16.60;58.20;;;;;;5104385;27;45352;-75
2023/03/17 02:06:28;;;;;;;1.15;0.40;;;16.60;57.90;;;;;;5107168;27;45241;-75
2023/03/17 02:08:55;;;;;;;0.55;0.30;;;16.60;57.80;;;;;;5107545;27;45079;-75
2023/03/17 02:11:22;;;;;;;0.93;0.40;;;16.60;57.60;;;;;;5106939;27;48248;-75
2023/03/17 02:13:50;;;;;;;0.60;0.45;;;16.60;58.10;;;;;;5107341;27;45193;-76
2023/03/17 02:16:17;;;;;;;0.10;0.10;;;16.60;58.90;;;;;;5107403;27;45131;-75
2023/03/17 02:18:44;;;;;;;0.45;0.40;;;16.60;57.70;;;;;;5107424;27;45557;-76
2023/03/17 02:21:34;;;;;;;0.63;0.40;;;16.60;58.10;;;;;;5106890;27;47736;-75
2023/03/17 02:24:06;;;;;;;0.32;0.30;;;16.60;57.80;;;;;;5107168;27;45336;-75
2023/03/17 02:26:34;;;;;;;1.15;0.60;;;16.60;57.80;;;;;;5107143;27;45354;-75
2023/03/17 02:29:02;;;;;;;1.00;0.30;;;16.60;57.80;;;;;;5110383;27;45498;-76
2023/03/17 02:31:29;;;;;;;0.40;0.40;;;16.60;57.90;;;;;;5107286;27;47362;-75
2023/03/17 02:33:56;;;;;;;1.00;0.43;;;16.60;57.80;;;;;;5106910;27;45133;-76
2023/03/17 02:36:23;;;;;;;0.55;0.40;;;16.50;57.70;;;;;;5106927;27;45252;-76
2023/03/17 02:38:52;;;;;;;2.63;0.50;;;16.60;57.60;;;;;;5107189;27;45503;-75
2023/03/17 02:41:18;;;;;;;0.60;0.45;;;16.60;58.00;;;;;;5106684;27;47575;-75
2023/03/17 02:43:45;;;;;;;0.47;0.40;;;16.60;57.60;;;;;;5106374;27;45427;-75
2023/03/17 02:46:12;;;;;;;0.43;0.40;;;16.60;57.40;;;;;;5106486;27;45225;-75
2023/03/17 02:48:40;;;;;;;1.27;0.70;;;16.60;57.70;;;;;;5106754;27;45409;-76
2023/03/17 02:51:07;;;;;;;0.73;0.40;;;16.60;57.70;;;;;;5106534;27;46332;-75
2023/03/17 02:53:34;;;;;;;0.52;0.32;;;16.60;57.60;;;;;;5106340;27;45164;-75
2023/03/17 02:56:02;;;;;;;0.77;0.40;;;16.60;57.50;;;;;;5107168;27;45225;-76
2023/03/17 02:58:28;;;;;;;0.43;0.25;;;16.60;57.70;;;;;;5106911;27;45438;-75
2023/03/17 03:00:55;;;;;;;0.88;0.30;;;16.60;57.30;;;;;;5106258;27;46280;-76
2023/03/17 03:03:22;;;;;;;0.77;0.50;;;16.60;56.90;;;;;;5106771;27;45197;-75
2023/03/17 03:05:49;;;;;;;0.32;0.32;;;16.60;57.30;;;;;;5107709;27;45275;-75
2023/03/17 03:08:16;;;;;;;0.32;0.32;;;16.60;57.30;;;;;;5110223;27;45432;-75
2023/03/17 03:10:43;;;;;;;0.80;0.50;;;16.60;57.30;;;;;;5110211;27;47913;-75
2023/03/17 03:13:12;;;;;;;0.73;0.38;;;16.60;57.20;;;;;;5109970;27;45226;-75
2023/03/17 03:15:41;;;;;;;0.43;0.43;;;16.60;57.00;;;;;;5110149;27;45114;-75
2023/03/17 03:18:08;;;;;;;0.40;0.38;;;16.60;57.10;;;;;;5110141;27;45209;-75
2023/03/17 03:20:36;;;;;;;0.60;0.30;;;16.60;57.40;;;;;;5109649;27;46971;-75
2023/03/17 03:23:03;;;;;;;1.15;0.60;;;16.50;57.10;;;;;;5113436;27;45999;-75
2023/03/17 03:25:30;;;;;;;0.70;0.50;;;16.50;57.40;;;;;;5110596;27;45209;-75
2023/03/17 03:27:57;;;;;;;0.52;0.40;;;16.50;57.00;;;;;;5109931;27;45544;-75
2023/03/17 03:30:25;;;;;;;0.45;0.30;;;16.50;57.10;;;;;;5109694;27;45532;-76
2023/03/17 03:32:52;;;;;;;1.17;0.50;;;16.50;57.00;;;;;;5109933;27;45373;-75
2023/03/17 03:35:19;;;;;;;0.63;0.32;;;16.50;56.90;;;;;;5110015;27;45117;-75
2023/03/17 03:37:46;;;;;;;0.40;0.28;;;16.60;57.00;;;;;;5109920;27;45351;-75
2023/03/17 03:40:13;;;;;;;0.40;0.30;;;16.60;56.70;;;;;;5109721;27;47511;-75
2023/03/17 03:42:40;;;;;;;0.47;0.47;;;16.60;56.50;;;;;;5109024;27;45359;-75
2023/03/17 03:45:08;;;;;;;0.75;0.40;;;16.60;56.40;;;;;;5109533;27;45370;-76
2023/03/17 03:47:37;;;;;;;1.30;0.30;;;16.60;56.60;;;;;;5109370;27;45466;-75
2023/03/17 03:50:04;;;;;;;0.70;0.30;;;16.60;57.00;;;;;;5109165;27;46308;-75
2023/03/17 03:52:31;;;;;;;0.77;0.50;;;16.60;57.00;;;;;;5109338;27;45294;-75
2023/03/17 03:54:58;;;;;;;0.82;0.43;;;16.60;56.90;;;;;;5109547;27;45246;-75
2023/03/17 03:57:24;;;;;;;0.50;0.40;;;16.60;56.40;;;;;;5109816;27;45219;-75
2023/03/17 03:59:51;;;;;;;0.40;0.40;;;16.60;56.20;;;;;;5109084;27;46294;-75
2023/03/17 04:02:18;;;;;;;0.40;0.30;;;16.60;56.50;;;;;;5109356;27;45329;-75
2023/03/17 04:04:46;;;;;;;1.10;0.60;;;16.60;56.60;;;;;;5109591;27;45354;-75
2023/03/17 04:07:13;;;;;;;1.20;0.40;;;16.60;56.70;;;;;;5109275;27;45573;-76
2023/03/17 04:09:40;;;;;;;1.00;0.47;;;16.60;56.60;;;;;;5109107;27;46735;-75
2023/03/17 04:12:08;;;;;;;0.63;0.43;;;16.50;56.90;;;;;;5109490;27;45214;-75
2023/03/17 04:14:35;;;;;;;0.28;0.28;;;16.50;56.50;;;;;;5109341;27;45319;-76
2023/03/17 04:17:03;;;;;;;0.65;0.40;;;16.50;56.80;;;;;;5112662;27;45139;-76
2023/03/17 04:19:30;;;;;;;0.85;0.50;;;16.50;56.70;;;;;;5108983;27;47524;-75
2023/03/17 04:21:58;;;;;;;0.40;0.30;;;16.50;56.60;;;;;;5108990;27;45443;-75
2023/03/17 04:24:26;;;;;;;1.40;0.40;;;16.50;56.60;;;;;;5108824;27;45276;-75
2023/03/17 04:26:53;;;;;;;0.85;0.50;;;16.50;56.60;;;;;;5108886;27;45180;-75
2023/03/17 04:29:20;;;;;;;0.38;0.35;;;16.50;56.50;;;;;;5109171;27;47364;-75
2023/03/17 04:31:47;;;;;;;0.50;0.50;;;16.50;56.50;;;;;;5108696;27;45124;-75
2023/03/17 04:34:15;;;;;;;0.30;0.30;;;16.50;56.80;;;;;;5108778;27;45343;-76
2023/03/17 04:36:43;;;;;;;0.88;0.60;;;16.60;56.90;;;;;;5108641;27;45436;-75
2023/03/17 04:39:12;;;;;;;0.40;0.40;;;16.60;56.60;;;;;;5108362;27;46741;-75
2023/03/17 04:41:39;;;;;;;1.05;0.43;;;16.60;56.80;;;;;;5108046;27;45342;-75
2023/03/17 04:44:06;;;;;;;0.63;0.55;;;16.60;56.70;;;;;;5108872;27;45204;-75
2023/03/17 04:46:34;;;;;;;0.43;0.40;;;16.60;56.90;;;;;;5108754;27;45277;-75
2023/03/17 04:49:01;;;;;;;0.47;0.40;;;16.60;56.60;;;;;;5108285;27;46850;-75
2023/03/17 04:51:28;;;;;;;0.50;0.40;;;16.60;56.80;;;;;;5108463;27;45131;-75
2023/03/17 04:53:54;;;;;;;1.27;0.55;;;16.60;56.60;;;;;;5108762;27;45304;-75
2023/03/17 04:56:23;;;;;;;0.95;0.40;;;16.60;56.40;;;;;;5108695;27;45286;-75
2023/03/17 04:58:49;;;;;;;1.10;0.43;;;16.60;56.40;;;;;;5108333;27;47335;-76
2023/03/17 05:01:16;;;;;;;0.55;0.40;;;16.60;56.30;;;;;;5108231;27;45136;-76
2023/03/17 05:03:44;;;;;;;1.00;0.60;;;16.60;56.20;;;;;;5108474;27;45088;-75
2023/03/17 05:06:11;;;;;;;0.25;0.25;;;16.50;56.20;;;;;;5108178;27;45285;-75
2023/03/17 05:08:38;;;;;;;0.68;0.40;;;16.50;56.20;;;;;;5108632;27;47933;-75
2023/03/17 05:11:05;;;;;;;0.73;0.40;;;16.50;56.10;;;;;;5111883;27;45279;-75
2023/03/17 05:13:33;;;;;;;0.30;0.30;;;16.50;56.20;;;;;;5107895;27;45213;-75
2023/03/17 05:16:00;;;;;;;0.50;0.50;;;16.50;56.20;;;;;;5107665;27;45345;-75
2023/03/17 05:18:28;;;;;;;1.50;0.60;;;16.50;55.90;;;;;;5103999;27;47708;-74
2023/03/17 05:20:55;;;;;;;0.80;0.50;;;16.40;55.10;;;;;;5103161;27;45267;-74
2023/03/17 05:23:22;;;;;;;0.90;0.65;;;16.40;55.50;;;;;;5097758;27;45309;-74
2023/03/17 05:25:49;;;;;;;0.88;0.50;;;16.40;56.00;;;;;;5106607;27;45443;-74
2023/03/17 05:28:17;;;;;;;0.73;0.47;;;16.50;56.00;;;;;;5095121;27;47512;-74
2023/03/17 05:30:46;;;;;;;0.57;0.50;;;16.50;56.20;;;;;;5106684;27;45419;-75
2023/03/17 05:33:14;;;;;;;1.88;0.60;;;16.50;56.20;;;;;;5101089;27;45360;-74
2023/03/17 05:35:41;;;;;;;1.10;0.50;;;16.60;56.50;;;;;;5101429;27;45277;-74
2023/03/17 05:38:10;;;;;;;1.23;0.50;;;16.60;56.40;;;;;;5105523;27;45475;-74
2023/03/17 05:40:37;;;;;;;1.60;0.68;;;16.60;56.70;;;;;;5105044;27;45413;-75
2023/03/17 05:43:05;;;;;;;0.50;0.50;;;16.60;56.80;;;;;;5106809;27;45498;-75
2023/03/17 05:45:32;;;;;;;0.77;0.50;;;16.60;56.60;;;;;;5106328;27;45262;-75
2023/03/17 05:48:00;;;;;;;0.75;0.50;;;16.50;56.60;;;;;;5125365;27;47508;-76
2023/03/17 05:50:27;;;;;;;1.27;0.55;;;16.50;56.80;;;;;;5128237;27;45320;-76
2023/03/17 05:52:54;;;;;;;0.40;0.35;;;16.50;57.00;;;;;;5127464;27;45191;-75
2023/03/17 05:55:20;;;;;;;0.65;0.43;;;16.40;57.00;;;;;;5106224;27;45372;-75
2023/03/17 05:57:47;;;;;;;0.70;0.40;;;16.40;56.40;;;;;;5113726;27;47546;-74
2023/03/17 06:00:17;;;;;;;0.57;0.30;;;16.40;56.20;;;;;;5107103;27;45350;-75
2023/03/17 06:02:44;;;;;;;1.63;0.52;;;16.40;56.50;;;;;;5110549;27;45473;-75
2023/03/17 06:05:13;;;;;;;0.73;0.50;;;16.40;56.60;;;;;;5108334;27;45684;-76
2023/03/17 06:07:40;;;;;;;0.93;0.55;;;16.30;56.70;;;;;;5106831;27;46592;-75
2023/03/17 06:10:08;;;;;;;0.75;0.43;;;16.30;56.80;;;;;;5106870;27;45689;-76
2023/03/17 06:12:35;;;;;;;0.52;0.40;;;16.30;57.10;;;;;;5107024;27;45358;-75
2023/03/17 06:15:02;;;;;;;1.33;0.70;;;16.30;57.20;;;;;;5106909;27;45381;-75
2023/03/17 06:17:29;;;;;;;0.68;0.40;;;16.30;57.70;;;;;;5106792;27;49136;-75
2023/03/17 06:19:55;;;;;;;0.40;0.40;;;16.30;57.50;;;;;;5106554;27;45301;-74
2023/03/17 06:22:23;;;;;;;0.77;0.60;;;16.30;57.10;;;;;;5096963;27;45526;-75
2023/03/17 06:24:52;;;;;;;1.08;0.60;;;16.30;55.90;;;;;;5126969;27;45424;-75
2023/03/17 06:27:19;;;;;;;0.50;0.50;;;16.30;56.90;;;;;;5127402;27;47366;-76
2023/03/17 06:29:46;;;;;;;0.90;0.40;;;16.40;57.00;;;;;;5127524;27;45229;-76
2023/03/17 06:32:13;;;;;;;0.85;0.60;;;16.40;57.30;;;;;;5127862;27;45434;-76
2023/03/17 06:34:40;;;;;;;0.47;0.40;;;16.40;57.20;;;;;;5127902;27;45396;-76
2023/03/17 06:37:07;;;;;;;0.63;0.50;;;16.40;57.00;;;;;;5127584;27;45274;-77
2023/03/17 06:39:36;;;;;;;1.10;0.60;;;16.40;57.30;;;;;;5121352;27;45239;-76
2023/03/17 06:42:03;;;;;;;0.50;0.40;;;16.40;57.00;;;;;;5106157;27;45230;-76
2023/03/17 06:44:30;;;;;;;0.90;0.60;;;16.40;57.20;;;;;;5103833;27;45368;-71
2023/03/17 06:46:57;;;;;;;0.70;0.50;;;16.50;57.20;;;;;;5106343;27;45331;-79
2023/03/17 06:49:24;;;;;;;1.48;0.35;;;16.50;59.80;;;;;;5106551;27;45175;-79
2023/03/17 06:51:51;;;;;;;0.88;0.43;;;16.60;60.00;;;;;;5106948;27;45280;-79
2023/03/17 06:54:19;;;;;;;0.73;0.40;;;16.60;59.80;;;;;;5106900;27;45110;-79
2023/03/17 06:56:47;;;;;;;0.43;0.40;;;16.70;59.80;;;;;;5110435;27;45490;-79
2023/03/17 06:59:14;;;;;;;0.43;0.32;;;16.70;59.70;;;;;;5106991;27;45298;-79
2023/03/17 07:01:41;;;;;;;0.73;0.40;;;16.70;59.70;;;;;;5106986;27;45372;-77
2023/03/17 07:04:08;;;;;;;1.00;0.60;;;16.70;59.60;;;;;;5106869;27;45132;-78
2023/03/17 07:06:35;;;;;;;0.50;0.47;;;16.60;59.40;;;;;;5106517;27;47064;-79
2023/03/17 07:09:02;;;;;;;1.25;0.50;;;16.60;59.20;;;;;;5106449;27;45207;-79
2023/03/17 07:11:29;;;;;;;0.90;0.52;;;16.60;59.20;;;;;;5106756;27;45217;-79
2023/03/17 07:13:57;;;;;;;0.70;0.40;;;16.60;59.10;;;;;;5106963;27;45578;-79
2023/03/17 07:16:24;;;;;;;0.85;0.63;;;16.60;58.90;;;;;;5106527;27;45476;-79
2023/03/17 07:18:51;;;;;;;1.70;0.60;;;16.60;58.80;;;;;;5106580;27;45538;-80
2023/03/17 07:21:18;;;;;;;1.80;0.60;;;16.60;58.90;;;;;;5106604;27;45257;-79
2023/03/17 07:23:44;;;;;;;1.25;0.43;;;16.60;58.60;;;;;;5106694;27;45597;-77
2023/03/17 07:26:11;;;;;;;0.93;0.50;;;16.60;58.30;;;;;;5106062;27;47990;-78
2023/03/17 07:28:39;;;;;;;0.73;0.57;;;16.60;58.20;;;;;;5106204;27;45422;-78
2023/03/17 07:31:08;;;;;;;0.73;0.70;;;16.70;58.30;;;;;;5106604;27;45325;-77
2023/03/17 07:33:35;;;;;;;0.90;0.70;;;16.70;58.40;;;;;;5106484;27;45623;-77
2023/03/17 07:36:02;;;;;;;1.13;0.70;;;16.70;58.10;;;;;;5106231;27;45328;-77
2023/03/17 07:38:28;;;;;;;0.63;0.50;;;16.80;58.30;;;;;;5106113;27;45214;-77
2023/03/17 07:40:55;;;;;;;0.50;0.47;;;16.80;58.30;;;;;;5106405;27;45379;-77
2023/03/17 07:43:22;;;;;;;1.17;0.60;;;16.80;58.40;;;;;;5105982;27;45354;-77
2023/03/17 07:45:49;;;;;;;1.00;0.60;;;16.80;58.10;;;;;;5106003;27;45373;-77
2023/03/17 07:48:18;;;;;;;3.00;0.88;;;16.80;58.40;;;;;;5105874;27;45778;-77
2023/03/17 07:50:45;;;;;;;0.90;0.70;;;16.80;58.30;;;;;;5110054;27;45181;-77
2023/03/17 07:53:13;;;;;;;1.35;0.85;;;16.90;58.30;;;;;;5107984;27;45543;-77
2023/03/17 07:55:41;;;;;;;2.40;0.70;;;16.80;58.50;;;;;;5109575;27;47342;-77
2023/03/17 07:58:08;;;;;;;0.82;0.50;;;16.90;58.50;;;;;;5109711;27;45230;-77
2023/03/17 08:00:35;;;;;;;0.80;0.43;;;16.90;58.40;;;;;;5110500;27;45141;-77
2023/03/17 08:03:02;;;;;;;1.90;0.50;;;16.80;58.40;;;;;;5110754;27;45173;-77
2023/03/17 08:05:31;;;;;;;0.40;0.40;;;16.80;58.40;;;;;;5109006;27;48371;-77
2023/03/17 08:07:58;;;;;;;0.47;0.47;;;16.90;58.50;;;;;;5109259;27;45212;-77
2023/03/17 08:10:25;;;;;;;1.83;0.65;;;16.80;58.50;;;;;;5109673;27;45287;-77
2023/03/17 08:12:52;;;;;;;0.65;0.40;;;16.80;58.60;;;;;;5109318;27;45595;-76
2023/03/17 08:15:20;;;;;;;0.73;0.50;;;16.80;58.80;;;;;;5109018;27;47320;-77
2023/03/17 08:17:47;;;;;;;0.30;0.30;;;16.90;58.60;;;;;;5108931;27;45904;-77
2023/03/17 08:20:14;;;;;;;0.85;0.45;;;16.90;58.70;;;;;;5109400;27;45126;-78
2023/03/17 08:22:42;;;;;;;0.40;0.35;;;16.90;58.70;;;;;;5109217;27;45589;-77
2023/03/17 08:25:10;;;;;;;1.10;0.70;;;16.90;58.70;;;;;;5107488;27;48229;-76
2023/03/17 08:27:37;;;;;;;0.95;0.50;;;16.90;58.60;;;;;;5108340;27;45621;-76
2023/03/17 08:30:05;;;;;;;3.67;0.50;;;16.90;58.70;;;;;;5108933;27;45190;-76
2023/03/17 08:32:32;;;;;;;7.97;0.45;;;16.90;58.70;;;;;;5108651;27;45394;-76
2023/03/17 08:34:59;;;;;;;2.22;0.50;;;16.90;58.60;;;;;;5108303;27;47660;-76
2023/03/17 08:37:26;;;;;;;0.90;0.40;;;17.00;58.60;;;;;;5108222;27;45594;-75
2023/03/17 08:39:54;;;;;;;0.47;0.38;;;17.00;58.60;;;;;;5107972;27;45328;-76
2023/03/17 08:42:22;;;;;;;1.08;0.50;;;16.90;58.60;;;;;;5110524;27;45494;-76
2023/03/17 08:44:49;;;;;;;2.38;0.40;;;16.90;58.60;;;;;;5109649;27;46703;-76
2023/03/17 08:47:16;;;;;;;0.70;0.47;;;16.90;58.70;;;;;;5114170;27;45210;-76
2023/03/17 08:49:43;;;;;;;1.63;0.65;;;16.90;58.70;;;;;;5129093;27;45261;-76
2023/03/17 08:52:09;;;;;;;0.82;0.35;;;16.90;58.80;;;;;;5129315;27;45250;-77
2023/03/17 08:54:36;;;;;;;0.68;0.50;;;16.90;58.80;;;;;;5129098;27;47329;-76
2023/03/17 08:57:04;;;;;;;0.75;0.50;;;16.90;58.80;;;;;;5128952;27;45277;-76
2023/03/17 08:59:31;;;;;;;0.50;0.40;;;16.90;58.90;;;;;;5129196;27;45346;-76
2023/03/17 09:01:58;;;;;;;0.43;0.38;;;16.90;58.90;;;;;;5129214;27;45097;-77
2023/03/17 09:04:25;;;;;;;1.55;0.65;;;16.90;59.00;;;;;;5128469;27;46820;-76
2023/03/17 09:06:53;;;;;;;0.63;0.35;;;16.90;58.90;;;;;;5128843;27;45295;-77
2023/03/17 09:09:20;;;;;;;0.35;0.35;;;16.90;58.90;;;;;;5129050;27;45398;-75
2023/03/17 09:11:47;;;;;;;0.82;0.50;;;16.90;58.90;;;;;;5128633;27;45504;-77
2023/03/17 09:14:15;;;;;;;0.68;0.40;;;16.90;59.00;;;;;;5128703;27;46700;-77
2023/03/17 09:16:42;;;;;;;1.45;0.52;;;16.90;59.00;;;;;;5128809;27;45226;-76
2023/03/17 09:19:09;;;;;;;0.68;0.43;;;16.90;59.00;;;;;;5117134;27;45246;-76
2023/03/17 09:21:35;;;;;;;0.80;0.47;;;16.90;59.00;;;;;;5108533;27;45739;-76
2023/03/17 09:24:02;;;;;;;0.43;0.40;;;17.00;59.00;;;;;;5107847;27;46698;-76
2023/03/17 09:26:29;;;;;;;0.98;0.47;;;17.00;59.10;;;;;;5107777;27;45128;-76
2023/03/17 09:28:56;;;;;;;1.08;0.60;;;16.90;58.90;;;;;;5107783;27;45251;-76
2023/03/17 09:31:25;;;;;;;1.17;0.50;;;16.90;58.80;;;;;;5107933;27;45478;-76
2023/03/17 09:33:52;;;;;;;0.32;0.32;;;17.00;58.90;;;;;;5107681;27;47586;-76
2023/03/17 09:36:19;;;;;;;1.35;0.50;;;17.00;58.90;;;;;;5110716;27;45313;-76
2023/03/17 09:38:46;;;;;;;0.35;0.30;;;17.00;58.90;;;;;;5108109;27;45224;-76
2023/03/17 09:41:30;;;;;;;0.70;0.57;;;17.00;59.00;;;;;;5107893;27;45218;-76
2023/03/17 09:44:06;;;;;;;0.85;0.43;;;17.00;59.10;;;;;;5107406;27;46609;-76
2023/03/17 09:46:44;;;;;;;0.43;0.30;;;17.00;59.00;;;;;;5107578;27;46153;-76
2023/03/17 09:49:13;;;;;;;2.03;0.45;;;17.00;59.00;;;;;;5107384;27;45171;-76
2023/03/17 09:51:43;;;;;;;1.83;0.60;;;17.00;59.10;;;;;;5107751;27;45511;-77
2023/03/17 09:54:14;;;;;;;1.38;0.77;;;17.00;59.00;;;;;;5107375;27;46531;-76
2023/03/17 09:56:46;;;;;;;0.93;0.60;;;17.00;59.00;;;;;;5107674;27;45299;-76
2023/03/17 09:59:28;;;;;;;0.77;0.38;;;17.00;58.90;;;;;;5104497;27;45199;-76
2023/03/17 10:01:57;;;;;;;0.40;0.40;;;17.00;58.90;;;;;;5107508;27;45534;-77
2023/03/17 10:04:24;;;;;;;0.85;0.40;;;17.00;59.00;;;;;;5107257;27;46416;-76
2023/03/17 10:06:52;;;;;;;0.50;0.40;;;17.00;58.90;;;;;;5107457;27;45163;-76
2023/03/17 10:09:26;;;;;;;1.52;0.40;;;17.00;59.00;;;;;;5107087;27;45312;-77
2023/03/17 10:12:03;;;;;;;0.52;0.40;;;17.00;58.90;;;;;;5107938;27;45351;-77
2023/03/17 10:14:51;;;;;;;0.90;0.52;;;17.00;58.90;;;;;;5107140;27;45510;-77
2023/03/17 10:17:21;;;;;;;0.40;0.40;;;17.10;59.00;;;;;;5107103;27;45070;-76
2023/03/17 10:19:57;;;;;;;0.50;0.40;;;17.00;58.90;;;;;;5107923;27;45190;-77
2023/03/17 10:22:29;;;;;;;0.60;0.38;;;17.10;59.10;;;;;;5107839;27;45335;-77
2023/03/17 10:25:02;;;;;;;0.35;0.25;;;17.00;58.80;;;;;;5107197;27;47027;-77
2023/03/17 10:27:34;;;;;;;1.02;0.38;;;17.10;59.10;;;;;;5107138;27;45132;-76
2023/03/17 10:30:01;;;;;;;0.30;0.30;;;17.10;59.10;;;;;;5110829;27;45148;-77
2023/03/17 10:32:31;;;;;;;0.45;0.30;;;17.10;59.00;;;;;;5107914;27;45118;-77
2023/03/17 10:34:58;;;;;;;0.57;0.40;;;17.10;59.00;;;;;;5106853;27;45757;-77
2023/03/17 10:37:28;;;;;;;0.22;0.20;;;17.10;59.00;;;;;;5106783;27;45163;-77
2023/03/17 10:39:58;;;;;;;1.08;0.47;;;17.10;59.10;;;;;;5107004;27;45296;-78
2023/03/17 10:42:27;;;;;;;0.30;0.30;;;17.10;58.90;;;;;;5106306;27;45456;-77
2023/03/17 10:44:57;;;;;;;0.68;0.40;;;17.00;58.90;;;;;;5106624;27;46438;-76
2023/03/17 10:47:31;;;;;;;0.65;0.30;;;17.00;59.00;;;;;;5107059;27;45195;-76
2023/03/17 10:50:04;;;;;;;0.93;0.50;;;17.00;59.10;;;;;;5106979;27;45354;-77
2023/03/17 10:52:35;;;;;;;0.73;0.40;;;17.00;59.10;;;;;;5107204;27;45382;-77
2023/03/17 10:55:05;;;;;;;0.30;0.25;;;17.00;59.10;;;;;;5106828;27;47017;-77
2023/03/17 10:57:32;;;;;;;0.38;0.30;;;17.00;59.10;;;;;;5106749;27;45310;-77
2023/03/17 11:00:03;;;;;;;0.55;0.43;;;17.00;59.10;;;;;;5107005;27;45227;-77
2023/03/17 11:02:43;;;;;;;0.68;0.30;;;17.10;59.30;;;;;;5106982;27;45210;-77
2023/03/17 11:05:19;;;;;;;1.25;0.50;;;17.10;59.30;;;;;;5106888;27;47866;-77
2023/03/17 11:07:46;;;;;;;1.42;0.40;;;17.00;59.10;;;;;;5106752;27;45212;-77
2023/03/17 11:10:20;;;;;;;0.43;0.40;;;17.10;59.20;;;;;;5106769;27;45173;-76
2023/03/17 11:12:50;;;;;;;0.60;0.50;;;17.10;59.20;;;;;;5106668;27;45250;-77
2023/03/17 11:15:18;;;;;;;0.60;0.40;;;17.10;59.20;;;;;;5085651;28;48492;-77
2023/03/17 11:17:54;;;;;;;1.20;0.45;;;17.10;59.20;;;;;;5085771;28;45349;-76
2023/03/17 11:20:40;;;;;;;1.77;0.45;;;17.10;59.30;;;;;;5098606;27;45159;-76
2023/03/17 11:23:14;;;;;;;2.17;0.40;;;17.10;59.20;;;;;;5109690;27;45436;-77
2023/03/17 11:25:43;;;;;;;0.30;0.30;;;17.10;59.20;;;;;;5107080;27;46514;-77
2023/03/17 11:28:19;;;;;;;0.30;0.30;;;17.10;59.30;;;;;;5109293;27;45223;-77
2023/03/17 11:30:55;;;;;;;0.60;0.43;;;17.10;59.30;;;;;;5109895;27;45171;-77
2023/03/17 11:33:33;;;;;;;0.50;0.40;;;17.10;59.20;;;;;;5109612;27;45234;-77
2023/03/17 11:36:09;;;;;;;0.40;0.30;;;17.10;59.20;;;;;;5109840;27;47295;-77
2023/03/17 11:38:40;;;;;;;0.50;0.40;;;17.10;59.30;;;;;;5110091;27;45194;-77
2023/03/17 11:41:26;;;;;;;0.30;0.28;;;17.10;59.30;;;;;;5110378;27;45231;-77
2023/03/17 11:44:11;;;;;;;0.85;0.43;;;17.10;59.20;;;;;;5107794;27;45591;-76
2023/03/17 11:46:43;;;;;;;0.90;0.40;;;17.00;59.40;;;;;;5095535;27;45710;-74
2023/03/17 11:49:17;;;;;;;0.60;0.50;;;17.00;59.30;;;;;;5107798;27;45202;-76
2023/03/17 11:51:51;;;;;;;1.25;0.55;;;17.00;59.40;;;;;;5106320;27;45210;-76
2023/03/17 11:54:23;;;;;;;0.30;0.30;;;17.10;59.50;;;;;;5109611;27;45586;-76
2023/03/17 11:56:54;;;;;;;0.88;0.40;;;17.10;59.40;;;;;;5105868;27;45363;-76
2023/03/17 11:59:30;;;;;;;0.45;0.45;;;17.10;59.40;;;;;;5109169;27;45290;-76
2023/03/17 12:02:05;;;;;;;0.30;0.20;;;17.10;59.30;;;;;;5099236;27;45263;-76
2023/03/17 12:04:38;;;;;;;0.70;0.40;;;17.10;59.30;;;;;;5099892;27;45463;-76
2023/03/17 12:07:13;;;;;;;0.40;0.32;;;17.10;59.30;;;;;;5108962;27;46271;-76
2023/03/17 12:09:43;;;;;;;0.77;0.57;;;17.20;59.30;;;;;;5109025;27;45307;-76
2023/03/17 12:12:14;;;;;;;0.85;0.50;;;17.20;59.40;;;;;;5108801;27;45427;-77
2023/03/17 12:14:47;;;;;;;5.25;1.10;;;17.20;59.30;;;;;;5109535;27;45341;-78
2023/03/17 12:17:19;;;;;;;3.67;0.50;;;17.20;59.40;;;;;;5113186;27;47969;-77
2023/03/17 12:20:03;;;;;;;0.85;0.50;;;17.20;59.30;;;;;;5106030;27;45241;-77
2023/03/17 12:22:34;;;;;;;1.13;0.35;;;17.30;59.40;;;;;;5109912;27;45241;-78
2023/03/17 12:25:15;;;;;;;0.57;0.40;;;17.30;59.30;;;;;;5109945;27;45336;-78
2023/03/17 12:27:48;;;;;;;1.00;0.35;;;17.30;59.30;;;;;;5108925;27;46611;-77
2023/03/17 12:30:23;;;;;;;1.10;0.30;;;17.30;59.20;;;;;;5108853;27;45242;-77
2023/03/17 12:33:00;;;;;;;0.30;0.30;;;17.30;59.10;;;;;;5108660;27;45325;-76
2023/03/17 12:35:30;;;;;;;1.63;0.35;;;17.30;59.10;;;;;;5109117;27;45179;-77
2023/03/17 12:37:59;;;;;;;0.57;0.43;;;17.40;59.30;;;;;;5107784;27;48174;-78
2023/03/17 12:40:32;;;;;;;0.30;0.30;;;17.40;59.40;;;;;;5108961;27;45207;-78
2023/03/17 12:43:18;;;;;;;0.75;0.40;;;17.40;59.30;;;;;;5108780;27;45260;-77
2023/03/17 12:46:22;;;;;;;0.60;0.28;;;17.30;59.00;;;;;;5109031;27;45149;-77
2023/03/17 12:49:08;;;;;;;0.40;0.30;;;17.40;59.00;;;;;;5108600;27;47825;-77
2023/03/17 12:52:11;;;;;;;0.82;0.45;;;17.40;59.00;;;;;;5108317;27;45309;-77
2023/03/17 12:54:39;;;;;;;2.45;0.43;;;17.30;58.80;;;;;;5108297;27;45329;-77
2023/03/17 12:57:13;;;;;;;0.30;0.25;;;17.40;58.70;;;;;;5108818;27;45604;-78